createdAt,value
2023-05-10T00:01:18.443Z,0.85
2023-05-10T00:03:48.081Z,0.72
2023-05-10T00:06:15.524Z,0.81
2023-05-10T00:08:46.872Z,0.78
2023-05-10T00:11:13.583Z,0.75
2023-05-10T00:13:40.892Z,0.74
2023-05-10T00:16:11.925Z,0.72
2023-05-10T00:18:39.784Z,0.84
2023-05-10T00:21:09.360Z,0.83
2023-05-10T00:23:36.172Z,0.71
2023-05-10T00:26:03.292Z,0.88
2023-05-10T00:28:30.801Z,0.87
2023-05-10T00:30:57.498Z,0.94
2023-05-10T00:33:25.424Z,1.04
2023-05-10T00:35:53.601Z,1.05
2023-05-10T00:38:21.879Z,0.94
2023-05-10T00:40:48.850Z,1.09
2023-05-10T00:43:18.881Z,0.95
2023-05-10T00:45:46.370Z,0.89
2023-05-10T00:48:13.662Z,1.01
2023-05-10T00:50:44.588Z,0.89
2023-05-10T00:53:11.565Z,0.91
2023-05-10T00:55:38.755Z,0.83
2023-05-10T00:58:06.757Z,0.78
2023-05-10T01:00:34.612Z,0.78
2023-05-10T01:03:01.957Z,0.81
2023-05-10T01:05:29.489Z,0.81
2023-05-10T01:07:57.660Z,0.87
2023-05-10T01:10:25.148Z,0.83
2023-05-10T01:12:51.905Z,0.85
2023-05-10T01:15:21.733Z,0.84
2023-05-10T01:17:49.737Z,0.91
2023-05-10T01:20:19.597Z,0.87
2023-05-10T01:23:08.415Z,0.83
2023-05-10T01:26:09.787Z,0.90
2023-05-10T01:28:59.498Z,0.88
2023-05-10T01:31:55.053Z,0.68
2023-05-10T01:34:27.377Z,0.83
2023-05-10T01:37:04.885Z,0.77
2023-05-10T01:39:44.685Z,0.96
2023-05-10T01:42:20.080Z,0.85
2023-05-10T01:44:56.502Z,0.91
2023-05-10T01:47:29.092Z,0.91
2023-05-10T01:49:56.377Z,0.87
2023-05-10T01:52:31.739Z,0.79
2023-05-10T01:55:09.982Z,0.68
2023-05-10T01:57:38.347Z,0.65
2023-05-10T02:00:10.876Z,0.78
2023-05-10T02:02:42.203Z,0.76
2023-05-10T02:05:09.105Z,0.71
2023-05-10T02:07:37.048Z,0.67
2023-05-10T02:10:23.996Z,0.66
2023-05-10T02:12:51.326Z,0.76
2023-05-10T02:15:21.634Z,0.74
2023-05-10T02:17:49.762Z,0.64
2023-05-10T02:20:17.545Z,0.70
2023-05-10T02:22:44.733Z,0.61
2023-05-10T02:25:11.773Z,0.65
2023-05-10T02:27:38.876Z,0.66
2023-05-10T02:30:08.594Z,0.67
2023-05-10T02:32:35.747Z,0.67
2023-05-10T02:35:05.657Z,0.71
2023-05-10T02:37:32.473Z,0.68
2023-05-10T02:39:59.631Z,0.70
2023-05-10T02:42:36.297Z,0.74
2023-05-10T02:45:04.529Z,0.62
2023-05-10T02:47:34.255Z,0.74
2023-05-10T02:50:01.380Z,0.69
2023-05-10T02:52:30.084Z,0.72
2023-05-10T02:54:57.276Z,0.86
2023-05-10T02:57:27.753Z,0.78
2023-05-10T02:59:55.210Z,0.78
2023-05-10T03:02:22.322Z,0.91
2023-05-10T03:04:49.093Z,0.81
2023-05-10T03:07:15.895Z,0.87
2023-05-10T03:09:42.578Z,0.80
2023-05-10T03:12:17.214Z,0.89
2023-05-10T03:15:09.423Z,0.88
2023-05-10T03:17:54.386Z,0.88
2023-05-10T03:20:44.687Z,0.83
2023-05-10T03:23:28.684Z,0.74
2023-05-10T03:25:56.152Z,0.85
2023-05-10T03:28:23.902Z,0.79
2023-05-10T03:30:50.691Z,0.82
2023-05-10T03:33:17.778Z,0.80
2023-05-10T03:35:44.876Z,0.75
2023-05-10T03:38:12.176Z,0.72
2023-05-10T03:40:38.917Z,0.63
2023-05-10T03:43:08.742Z,0.66
2023-05-10T03:45:35.869Z,0.77
2023-05-10T03:48:02.606Z,0.82
2023-05-10T03:50:29.862Z,0.68
2023-05-10T03:52:56.991Z,0.74
2023-05-10T03:55:23.920Z,0.90
2023-05-10T03:57:51.387Z,0.79
2023-05-10T04:00:21.040Z,0.95
2023-05-10T04:02:50.524Z,0.91
2023-05-10T04:05:20.239Z,0.88
2023-05-10T04:07:49.786Z,0.92
2023-05-10T04:10:17.237Z,1.06
2023-05-10T04:12:45.480Z,0.91
2023-05-10T04:15:12.600Z,1.01
2023-05-10T04:17:39.771Z,1.07
2023-05-10T04:20:08.852Z,0.95
2023-05-10T04:22:35.596Z,0.88
2023-05-10T04:25:02.753Z,0.79
2023-05-10T04:27:29.790Z,0.90
2023-05-10T04:29:57.684Z,0.81
2023-05-10T04:32:24.701Z,0.84
2023-05-10T04:34:51.640Z,0.71
2023-05-10T04:37:18.580Z,0.74
2023-05-10T04:39:46.896Z,0.83
2023-05-10T04:42:16.424Z,0.62
2023-05-10T04:44:46.612Z,0.64
2023-05-10T04:47:13.715Z,0.68
2023-05-10T04:49:40.413Z,0.68
2023-05-10T04:52:08.137Z,0.60
2023-05-10T04:54:35.261Z,0.58
2023-05-10T04:57:02.404Z,0.58
2023-05-10T04:59:29.138Z,0.67
2023-05-10T05:01:55.836Z,0.63
2023-05-10T05:04:22.623Z,0.58
2023-05-10T05:06:50.242Z,0.68
2023-05-10T05:09:18.792Z,0.61
2023-05-10T05:11:46.917Z,0.52
2023-05-10T05:14:13.881Z,0.53
2023-05-10T05:16:40.979Z,0.44
2023-05-10T05:19:08.134Z,0.56
2023-05-10T05:21:34.868Z,0.66
2023-05-10T05:24:01.900Z,0.59
2023-05-10T05:26:29.757Z,0.47
2023-05-10T05:28:59.042Z,0.61
2023-05-10T05:31:28.803Z,0.50
2023-05-10T05:33:55.929Z,0.66
2023-05-10T05:36:22.663Z,0.54
2023-05-10T05:38:49.637Z,0.65
2023-05-10T05:41:16.774Z,0.77
2023-05-10T05:43:46.307Z,0.75
2023-05-10T05:46:13.442Z,0.81
2023-05-10T05:48:40.625Z,0.68
2023-05-10T05:51:07.751Z,0.70
2023-05-10T05:53:34.946Z,0.68
2023-05-10T05:56:04.770Z,0.75
2023-05-10T05:58:32.001Z,0.93
2023-05-10T06:01:01.404Z,1.06
2023-05-10T06:03:28.443Z,0.98
2023-05-10T06:05:56.455Z,0.90
2023-05-10T06:08:23.533Z,0.81
2023-05-10T06:10:50.984Z,0.80
2023-05-10T06:13:17.830Z,0.94
2023-05-10T06:15:45.853Z,0.83
2023-05-10T06:18:13.336Z,0.91
2023-05-10T06:20:41.945Z,0.93
2023-05-10T06:23:11.646Z,0.98
2023-05-10T06:25:38.632Z,0.90
2023-05-10T06:28:06.373Z,0.89
2023-05-10T06:30:33.400Z,0.95
2023-05-10T06:33:00.568Z,0.97
2023-05-10T06:35:30.125Z,0.99
2023-05-10T06:38:02.081Z,1.17
2023-05-10T06:40:30.774Z,1.19
2023-05-10T06:42:57.905Z,1.03
2023-05-10T06:45:25.016Z,1.23
2023-05-10T06:47:52.244Z,1.47
2023-05-10T06:50:19.458Z,1.18
2023-05-10T06:52:47.176Z,1.11
2023-05-10T06:55:14.375Z,1.34
2023-05-10T06:57:41.220Z,1.23
2023-05-10T07:00:09.931Z,1.10
2023-05-10T07:02:36.765Z,1.12
2023-05-10T07:05:04.143Z,0.99
2023-05-10T07:07:31.402Z,1.08
2023-05-10T07:09:58.258Z,1.11
2023-05-10T07:12:25.712Z,1.06
2023-05-10T07:14:52.527Z,0.90
2023-05-10T07:17:19.581Z,0.97
2023-05-10T07:19:46.750Z,1.09
2023-05-10T07:22:16.379Z,1.02
2023-05-10T07:24:43.549Z,0.94
2023-05-10T07:27:10.355Z,1.00
2023-05-10T07:29:37.053Z,1.08
2023-05-10T07:32:03.764Z,1.01
2023-05-10T07:34:31.027Z,0.88
2023-05-10T07:36:59.413Z,1.01
2023-05-10T07:39:29.460Z,0.96
2023-05-10T07:41:56.379Z,1.01
2023-05-10T07:44:23.170Z,1.09
2023-05-10T07:46:50.645Z,1.17
2023-05-10T07:49:18.156Z,1.01
2023-05-10T07:51:45.308Z,0.99
2023-05-10T07:54:12.413Z,1.22
2023-05-10T07:56:39.752Z,1.17
2023-05-10T07:59:08.134Z,1.15
2023-05-10T08:01:36.413Z,1.19
2023-05-10T08:04:03.665Z,1.09
2023-05-10T08:06:30.511Z,1.07
2023-05-10T08:08:57.241Z,1.21
2023-05-10T08:11:24.047Z,1.19
2023-05-10T08:13:50.931Z,1.22
2023-05-10T08:16:20.032Z,1.25
2023-05-10T08:18:47.251Z,1.13
2023-05-10T08:21:16.831Z,1.08
2023-05-10T08:23:43.605Z,1.08
2023-05-10T08:26:10.312Z,0.95
2023-05-10T08:28:38.202Z,1.07
2023-05-10T08:31:06.225Z,1.07
2023-05-10T08:33:33.121Z,0.62
2023-05-10T08:36:00.877Z,0.68
2023-05-10T08:38:27.823Z,0.68
2023-05-10T08:40:55.351Z,0.88
2023-05-10T08:43:22.082Z,0.69
2023-05-10T08:45:49.462Z,0.64
2023-05-10T08:48:16.198Z,0.57
2023-05-10T08:50:43.407Z,0.54
2023-05-10T08:53:15.813Z,0.56
2023-05-10T08:55:42.928Z,0.54
2023-05-10T08:58:10.045Z,0.52
2023-05-10T09:00:36.824Z,0.68
2023-05-10T09:03:04.751Z,0.66
2023-05-10T09:05:31.595Z,0.68
2023-05-10T09:07:58.865Z,0.72
2023-05-10T09:10:25.658Z,0.82
2023-05-10T09:12:52.726Z,0.85
2023-05-10T09:15:19.990Z,0.96
2023-05-10T09:17:46.873Z,1.18
2023-05-10T09:20:13.610Z,1.40
2023-05-10T09:22:40.329Z,1.36
2023-05-10T09:25:15.425Z,1.62
2023-05-10T09:27:48.512Z,1.39
2023-05-10T09:30:31.048Z,1.22
2023-05-10T09:33:02.015Z,1.13
2023-05-10T09:35:30.162Z,1.01
2023-05-10T09:37:58.549Z,1.06
2023-05-10T09:40:26.002Z,1.10
2023-05-10T09:42:57.037Z,1.09
2023-05-10T09:45:28.140Z,1.07
2023-05-10T09:47:57.994Z,1.52
2023-05-10T09:50:25.536Z,1.36
2023-05-10T09:53:02.380Z,1.28
2023-05-10T09:55:47.501Z,1.22
2023-05-10T09:58:14.475Z,1.26
2023-05-10T10:00:44.975Z,1.36
2023-05-10T10:03:16.026Z,1.28
2023-05-10T10:05:42.781Z,1.50
2023-05-10T10:08:12.736Z,1.52
2023-05-10T10:10:39.962Z,1.37
2023-05-10T10:13:08.450Z,1.61
2023-05-10T10:15:35.885Z,1.50
2023-05-10T10:18:05.601Z,1.46
2023-05-10T10:20:33.548Z,1.45
2023-05-10T10:23:01.439Z,1.28
2023-05-10T10:25:29.449Z,1.66
2023-05-10T10:28:15.901Z,1.47
2023-05-10T10:30:49.774Z,1.44
2023-05-10T10:33:48.129Z,1.23
2023-05-10T10:36:16.377Z,1.25
2023-05-10T10:38:55.558Z,1.28
2023-05-10T10:41:37.705Z,1.50
2023-05-10T10:44:23.809Z,1.30
2023-05-10T10:47:12.197Z,1.23
2023-05-10T10:49:44.619Z,1.25
2023-05-10T10:52:40.821Z,1.16
2023-05-10T10:55:36.803Z,1.19
2023-05-10T10:58:04.075Z,1.12
2023-05-10T11:00:38.376Z,1.19
2023-05-10T11:03:12.059Z,1.18
2023-05-10T11:05:45.993Z,1.25
2023-05-10T11:08:14.594Z,1.26
2023-05-10T11:10:42.193Z,1.31
2023-05-10T11:13:09.791Z,1.51
2023-05-10T11:15:37.909Z,1.43
2023-05-10T11:18:30.692Z,1.50
2023-05-10T11:21:01.614Z,1.49
2023-05-10T11:23:48.619Z,1.41
2023-05-10T11:26:16.820Z,1.67
2023-05-10T11:28:51.415Z,1.46
2023-05-10T11:31:24.914Z,1.22
2023-05-10T11:33:53.234Z,1.20
2023-05-10T11:36:21.863Z,1.26
2023-05-10T11:38:48.679Z,0.92
2023-05-10T11:41:16.785Z,0.80
2023-05-10T11:43:43.557Z,0.72
2023-05-10T11:46:13.616Z,0.62
2023-05-10T11:48:41.066Z,0.74
2023-05-10T11:51:09.526Z,0.73
2023-05-10T11:53:36.247Z,0.80
2023-05-10T11:56:10.531Z,1.23
2023-05-10T11:58:38.073Z,0.99
2023-05-10T12:01:06.281Z,1.09
2023-05-10T12:03:33.955Z,1.17
2023-05-10T12:06:01.367Z,0.98
2023-05-10T12:08:29.020Z,1.14
2023-05-10T12:11:07.635Z,0.84
2023-05-10T12:13:42.495Z,0.88
2023-05-10T12:16:22.511Z,0.90
2023-05-10T12:18:50.037Z,0.78
2023-05-10T12:21:19.996Z,0.68
2023-05-10T12:23:50.741Z,0.72
2023-05-10T12:26:17.925Z,0.75
2023-05-10T12:28:44.600Z,1.05
2023-05-10T12:31:14.079Z,0.80
2023-05-10T12:33:42.782Z,0.77
2023-05-10T12:36:18.810Z,0.94
2023-05-10T12:38:46.086Z,0.70
2023-05-10T12:41:17.477Z,0.85
2023-05-10T12:43:47.171Z,0.80
2023-05-10T12:46:15.381Z,0.71
2023-05-10T12:48:42.477Z,0.68
2023-05-10T12:51:09.275Z,0.54
2023-05-10T12:53:36.793Z,0.62
2023-05-10T12:56:04.877Z,0.69
2023-05-10T12:58:35.968Z,0.64
2023-05-10T13:01:03.308Z,0.68
2023-05-10T13:03:30.626Z,0.77
2023-05-10T13:05:57.774Z,0.68
2023-05-10T13:08:27.326Z,0.66
2023-05-10T13:10:54.406Z,0.78
2023-05-10T13:13:21.184Z,0.70
2023-05-10T13:15:50.763Z,0.69
2023-05-10T13:18:20.331Z,0.79
2023-05-10T13:20:49.930Z,0.73
2023-05-10T13:23:16.677Z,0.67
2023-05-10T13:25:44.702Z,0.59
2023-05-10T13:28:14.250Z,0.59
2023-05-10T13:30:43.844Z,0.71
2023-05-10T13:33:10.910Z,0.62
2023-05-10T13:35:38.031Z,0.58
2023-05-10T13:38:07.566Z,0.49
2023-05-10T13:40:37.132Z,0.40
2023-05-10T13:43:04.319Z,0.31
2023-05-10T13:45:33.870Z,0.27
2023-05-10T13:48:00.639Z,0.32
2023-05-10T13:50:27.778Z,0.26
2023-05-10T13:52:58.934Z,0.26
2023-05-10T13:55:25.706Z,0.25
2023-05-10T13:57:52.844Z,0.30
2023-05-10T14:00:20.531Z,0.30
2023-05-10T14:02:50.136Z,0.22
2023-05-10T14:05:22.363Z,0.23
2023-05-10T14:07:56.944Z,0.22
2023-05-10T14:10:24.025Z,0.21
2023-05-10T14:12:50.958Z,0.21
2023-05-10T14:15:17.943Z,0.34
2023-05-10T14:17:46.074Z,0.34
2023-05-10T14:20:12.813Z,0.41
2023-05-10T14:22:39.568Z,0.46
2023-05-10T14:25:06.928Z,0.49
2023-05-10T14:27:34.041Z,0.51
2023-05-10T14:30:03.433Z,0.50
2023-05-10T14:32:30.617Z,0.41
2023-05-10T14:34:57.356Z,0.40
2023-05-10T14:37:24.050Z,0.44
2023-05-10T14:39:50.938Z,0.40
2023-05-10T14:42:18.037Z,0.39
2023-05-10T14:44:45.823Z,0.48
2023-05-10T14:47:12.537Z,0.47
2023-05-10T14:49:39.817Z,0.50
2023-05-10T14:52:06.771Z,0.81
2023-05-10T14:54:33.796Z,0.44
2023-05-10T14:57:00.791Z,0.44
2023-05-10T14:59:27.812Z,0.51
2023-05-10T15:01:55.133Z,0.41
2023-05-10T15:04:23.162Z,0.52
2023-05-10T15:06:50.970Z,0.53
2023-05-10T15:09:18.028Z,0.73
2023-05-10T15:11:45.911Z,0.53
2023-05-10T15:14:15.402Z,0.47
2023-05-10T15:16:42.459Z,0.58
2023-05-10T15:19:09.688Z,0.58
2023-05-10T15:21:36.974Z,0.36
2023-05-10T15:24:05.005Z,0.37
2023-05-10T15:26:33.037Z,0.47
2023-05-10T15:29:00.016Z,0.45
2023-05-10T15:31:26.749Z,0.57
2023-05-10T15:33:57.702Z,0.53
2023-05-10T15:36:24.444Z,0.47
2023-05-10T15:38:51.543Z,0.46
2023-05-10T15:41:18.330Z,0.41
2023-05-10T15:43:45.952Z,0.45
2023-05-10T15:46:13.152Z,0.44
2023-05-10T15:48:39.929Z,0.50
2023-05-10T15:51:07.891Z,0.48
2023-05-10T15:53:34.601Z,0.53
2023-05-10T15:56:04.681Z,0.55
2023-05-10T15:58:31.843Z,0.45
2023-05-10T16:00:59.730Z,0.53
2023-05-10T16:03:26.746Z,0.48
2023-05-10T16:05:53.887Z,0.52
2023-05-10T16:08:20.586Z,0.51
2023-05-10T16:10:47.331Z,0.61
2023-05-10T16:13:15.024Z,0.64
2023-05-10T16:15:44.675Z,0.71
2023-05-10T16:18:11.390Z,0.74
2023-05-10T16:20:38.722Z,0.75
2023-05-10T16:23:06.392Z,0.67
2023-05-10T16:25:33.315Z,0.76
2023-05-10T16:28:02.854Z,0.88
2023-05-10T16:30:29.857Z,0.79
2023-05-10T16:32:57.192Z,0.67
2023-05-10T16:35:24.002Z,0.69
2023-05-10T16:37:51.205Z,0.61
2023-05-10T16:40:20.754Z,0.60
2023-05-10T16:42:49.162Z,0.69
2023-05-10T16:45:17.623Z,0.58
2023-05-10T16:47:45.232Z,0.46
2023-05-10T16:50:12.794Z,0.45
2023-05-10T16:52:40.048Z,0.46
2023-05-10T16:55:08.059Z,0.52
2023-05-10T16:57:35.478Z,0.75
2023-05-10T17:00:02.367Z,0.42
2023-05-10T17:02:29.678Z,0.39
2023-05-10T17:04:56.502Z,0.44
2023-05-10T17:07:26.076Z,0.44
2023-05-10T17:09:54.095Z,0.56
2023-05-10T17:12:21.281Z,0.55
2023-05-10T17:14:47.980Z,0.59
2023-05-10T17:17:15.085Z,0.49
2023-05-10T17:19:42.213Z,0.62
2023-05-10T17:22:09.443Z,0.44
2023-05-10T17:24:36.661Z,0.57
2023-05-10T17:27:04.145Z,0.51
2023-05-10T17:29:30.861Z,0.52
2023-05-10T17:32:07.557Z,0.54
2023-05-10T17:34:37.940Z,0.71
2023-05-10T17:37:06.173Z,0.43
2023-05-10T17:39:32.945Z,0.60
2023-05-10T17:42:00.781Z,0.56
2023-05-10T17:44:32.904Z,0.64
2023-05-10T17:46:59.990Z,0.62
2023-05-10T17:49:26.980Z,0.59
2023-05-10T17:51:54.187Z,0.68
2023-05-10T17:54:21.266Z,0.71
2023-05-10T17:56:53.143Z,0.95
2023-05-10T17:59:20.887Z,0.59
2023-05-10T18:01:47.659Z,0.55
2023-05-10T18:04:14.847Z,0.70
2023-05-10T18:06:42.155Z,0.90
2023-05-10T18:09:11.648Z,1.13
2023-05-10T18:11:38.317Z,0.62
2023-05-10T18:14:06.417Z,0.71
2023-05-10T18:16:33.614Z,0.77
2023-05-10T18:19:03.282Z,0.76
2023-05-10T18:21:32.943Z,0.80
2023-05-10T18:24:00.677Z,0.98
2023-05-10T18:26:30.197Z,0.93
2023-05-10T18:28:59.146Z,0.90
2023-05-10T18:31:29.323Z,0.82
2023-05-10T18:33:56.122Z,0.98
2023-05-10T18:36:24.258Z,0.81
2023-05-10T18:38:52.143Z,0.85
2023-05-10T18:41:19.235Z,0.84
2023-05-10T18:43:48.883Z,0.89
2023-05-10T18:46:16.027Z,0.89
2023-05-10T18:48:45.525Z,1.07
2023-05-10T18:51:12.292Z,0.94
2023-05-10T18:53:41.812Z,1.02
2023-05-10T18:56:08.910Z,1.14
2023-05-10T18:58:38.133Z,0.83
2023-05-10T19:01:04.872Z,1.01
2023-05-10T19:03:31.559Z,1.04
2023-05-10T19:05:58.702Z,0.99
2023-05-10T19:08:25.959Z,1.06
2023-05-10T19:10:52.722Z,1.01
2023-05-10T19:13:19.727Z,1.37
2023-05-10T19:16:09.233Z,1.21
2023-05-10T19:18:39.151Z,1.26
2023-05-10T19:21:13.323Z,1.12
2023-05-10T19:23:40.367Z,1.12
2023-05-10T19:26:27.513Z,1.25
2023-05-10T19:28:57.669Z,1.66
2023-05-10T19:31:24.990Z,2.42
2023-05-10T19:33:52.865Z,2.11
2023-05-10T19:36:20.917Z,2.32
2023-05-10T19:38:52.358Z,2.09
2023-05-10T19:41:22.040Z,2.33
2023-05-10T19:43:50.378Z,2.68
2023-05-10T19:46:19.453Z,2.43
2023-05-10T19:48:47.565Z,2.61
2023-05-10T19:51:17.540Z,2.72
2023-05-10T19:53:44.644Z,2.99
2023-05-10T19:56:15.034Z,2.50
2023-05-10T19:58:48.187Z,2.50
2023-05-10T20:01:15.468Z,2.32
2023-05-10T20:03:43.299Z,2.48
2023-05-10T20:06:13.064Z,2.56
2023-05-10T20:08:43.563Z,1.93
2023-05-10T20:11:10.366Z,1.96
2023-05-10T20:13:37.143Z,1.85
2023-05-10T20:16:04.339Z,1.83
2023-05-10T20:18:32.178Z,2.28
2023-05-10T20:21:00.994Z,2.26
2023-05-10T20:23:29.058Z,1.98
2023-05-10T20:26:00.886Z,1.94
2023-05-10T20:28:28.981Z,2.19
2023-05-10T20:30:57.025Z,2.21
2023-05-10T20:33:24.920Z,1.81
2023-05-10T20:35:51.901Z,1.54
2023-05-10T20:38:18.659Z,1.36
2023-05-10T20:40:46.085Z,1.41
2023-05-10T20:43:13.230Z,1.93
2023-05-10T20:45:41.164Z,3.13
2023-05-10T20:48:12.132Z,2.42
2023-05-10T20:50:43.297Z,2.17
2023-05-10T20:53:10.431Z,2.33
2023-05-10T20:55:37.853Z,2.23
2023-05-10T20:58:05.342Z,2.43
2023-05-10T21:00:33.936Z,2.16
2023-05-10T21:03:00.728Z,1.82
2023-05-10T21:05:30.315Z,1.51
2023-05-10T21:07:57.364Z,2.04
2023-05-10T21:10:25.110Z,2.07
2023-05-10T21:12:56.340Z,1.97
2023-05-10T21:15:23.868Z,2.06
2023-05-10T21:17:55.221Z,1.90
2023-05-10T21:20:23.484Z,2.49
2023-05-10T21:22:50.939Z,1.96
2023-05-10T21:25:22.879Z,1.80
2023-05-10T21:27:52.109Z,1.95
2023-05-10T21:30:19.848Z,1.71
2023-05-10T21:32:47.602Z,2.27
2023-05-10T21:35:14.776Z,1.89
2023-05-10T21:37:45.688Z,1.95
2023-05-10T21:40:13.912Z,1.75
2023-05-10T21:42:44.334Z,1.53
2023-05-10T21:45:11.558Z,1.52
2023-05-10T21:47:38.288Z,1.53
2023-05-10T21:50:06.530Z,1.68
2023-05-10T21:52:34.298Z,1.54
2023-05-10T21:55:01.883Z,1.49
2023-05-10T21:57:28.978Z,1.65
2023-05-10T21:59:56.655Z,1.57
2023-05-10T22:02:24.055Z,1.94
2023-05-10T22:04:51.580Z,2.05
2023-05-10T22:07:18.704Z,2.32
2023-05-10T22:09:51.178Z,2.37
2023-05-10T22:12:19.342Z,2.48
2023-05-10T22:14:48.575Z,2.45
2023-05-10T22:17:18.083Z,2.51
2023-05-10T22:19:45.173Z,2.57
2023-05-10T22:22:13.711Z,2.45
2023-05-10T22:24:42.454Z,2.13
2023-05-10T22:27:10.257Z,1.90
2023-05-10T22:29:39.789Z,1.71
2023-05-10T22:32:07.057Z,1.51
2023-05-10T22:34:34.604Z,1.60
2023-05-10T22:37:03.246Z,1.74
2023-05-10T22:39:31.913Z,1.49
2023-05-10T22:42:02.000Z,1.51
2023-05-10T22:44:31.554Z,1.84
2023-05-10T22:47:01.052Z,1.77
2023-05-10T22:49:29.505Z,1.73
2023-05-10T22:51:58.920Z,1.67
2023-05-10T22:54:26.798Z,1.46
2023-05-10T22:56:54.004Z,1.42
2023-05-10T22:59:20.975Z,1.67
2023-05-10T23:01:48.412Z,1.46
2023-05-10T23:04:15.569Z,1.42
2023-05-10T23:06:47.825Z,1.29
2023-05-10T23:09:14.525Z,1.24
2023-05-10T23:11:42.085Z,1.24
2023-05-10T23:14:09.334Z,1.35
2023-05-10T23:16:36.474Z,1.30
2023-05-10T23:19:07.295Z,1.41
2023-05-10T23:21:36.986Z,1.41
2023-05-10T23:24:05.351Z,1.48
2023-05-10T23:26:35.427Z,1.31
2023-05-10T23:29:05.129Z,1.29
2023-05-10T23:31:33.474Z,1.26
2023-05-10T23:34:01.815Z,1.15
2023-05-10T23:36:31.425Z,1.25
2023-05-10T23:38:59.459Z,1.17
2023-05-10T23:41:27.369Z,1.25
2023-05-10T23:43:57.925Z,1.27
2023-05-10T23:46:25.134Z,1.44
2023-05-10T23:48:57.333Z,1.20
2023-05-10T23:51:24.886Z,1.11
2023-05-10T23:53:52.244Z,1.20
2023-05-10T23:56:20.881Z,1.17
2023-05-10T23:58:49.026Z,1.11
